Time;durP1;ratioP1;P1;durP2;ratioP2;P2;SDS_P1;SDS_P2;PMS_P1;PMS_P2;Temp;Humidity;BMP_temperature;BMP_pressure;BME280_temperature;BME280_humidity;BME280_pressure;Samples;Min_cycle;Max_cycle;Signal;HPM_P1;HPM_P2
2022/06/03 00:01:01;;;;;;;9.25;2.30;;;;;;;13.89;100.00;101783.63;5140810;27;20038;-80
2022/06/03 00:03:47;;;;;;;7.18;2.50;;;;;;;13.90;100.00;101770.41;5152587;27;20075;-80
2022/06/03 00:06:19;;;;;;;7.70;2.58;;;;;;;13.94;100.00;101798.34;5154102;27;20058;-80
2022/06/03 00:08:58;;;;;;;8.52;3.08;;;;;;;13.82;100.00;101796.16;5145837;27;20393;-81
2022/06/03 00:11:30;;;;;;;9.88;3.15;;;;;;;13.70;100.00;101791.28;5135983;27;20057;-80
2022/06/03 00:14:35;;;;;;;6.53;2.57;;;;;;;13.98;100.00;101804.38;5146377;27;20049;-81
2022/06/03 00:17:10;;;;;;;9.00;2.90;;;;;;;13.84;100.00;101795.16;5152744;27;20051;-80
2022/06/03 00:20:02;;;;;;;8.52;3.65;;;;;;;13.89;100.00;101805.56;5148922;27;20628;-81
2022/06/03 00:22:29;;;;;;;10.15;3.50;;;;;;;13.67;100.00;101802.81;5133433;27;20043;-80
2022/06/03 00:24:58;;;;;;;7.40;2.72;;;;;;;13.82;100.00;101806.69;5153289;27;20381;-80
2022/06/03 00:27:31;;;;;;;10.30;3.28;;;;;;;13.94;100.00;101806.25;5153730;27;20043;-80
2022/06/03 00:30:17;;;;;;;10.65;3.33;;;;;;;13.67;100.00;101803.66;5138280;27;20057;-80
2022/06/03 00:33:14;;;;;;;9.90;3.95;;;;;;;13.53;100.00;101807.63;5156469;27;20047;-80
2022/06/03 00:35:43;;;;;;;10.75;3.25;;;;;;;13.28;100.00;101803.16;5156121;27;20046;-80
2022/06/03 00:38:37;;;;;;;10.25;2.92;;;;;;;13.56;100.00;101800.50;5151847;27;20039;-80
2022/06/03 00:41:19;;;;;;;11.60;4.35;;;;;;;13.65;100.00;101804.59;5137295;27;20557;-80
2022/06/03 00:43:59;;;;;;;9.80;4.47;;;;;;;13.15;100.00;101775.53;5136762;27;20053;-80
2022/06/03 00:46:50;;;;;;;8.38;3.47;;;;;;;13.23;100.00;101812.97;5152841;27;20069;-80
2022/06/03 00:49:32;;;;;;;12.88;6.15;;;;;;;13.05;100.00;101809.13;5145008;27;20407;-80
2022/06/03 00:52:01;;;;;;;9.95;4.78;;;;;;;13.08;100.00;101814.28;5155228;27;20042;-80
2022/06/03 00:54:53;;;;;;;13.35;5.18;;;;;;;12.93;100.00;101812.16;5156201;27;20046;-80
2022/06/03 00:57:45;;;;;;;9.35;4.28;;;;;;;13.04;100.00;101812.66;5155920;27;20057;-80
2022/06/03 01:00:30;;;;;;;11.40;4.47;;;;;;;12.96;100.00;101804.16;5141709;27;20403;-81
2022/06/03 01:03:20;;;;;;;9.65;4.18;;;;;;;13.24;100.00;101818.19;5155935;27;20042;-80
2022/06/03 01:05:47;;;;;;;8.23;3.25;;;;;;;13.20;100.00;101811.28;5155323;27;20046;-80
2022/06/03 01:08:51;;;;;;;11.25;5.07;;;;;;;12.78;100.00;101819.56;5156971;27;20399;-80
2022/06/03 01:11:27;;;;;;;12.23;5.22;;;;;;;13.01;100.00;101808.34;5141392;27;20128;-80
2022/06/03 01:13:53;;;;;;;10.32;4.40;;;;;;;12.80;100.00;101824.78;5155463;27;20058;-80
2022/06/03 01:16:23;;;;;;;10.15;4.43;;;;;;;13.10;100.00;101831.75;5142487;27;20046;-81
2022/06/03 01:19:16;;;;;;;10.93;5.45;;;;;;;13.02;100.00;101836.38;5155755;27;20476;-81
2022/06/03 01:21:43;;;;;;;11.52;5.60;;;;;;;13.21;100.00;101826.16;5143311;27;20424;-80
2022/06/03 01:24:32;;;;;;;11.25;5.25;;;;;;;13.15;100.00;101828.97;5155363;27;20057;-79
2022/06/03 01:27:38;;;;;;;10.93;5.13;;;;;;;12.96;100.00;101827.81;5155655;27;20472;-80
2022/06/03 01:30:20;;;;;;;10.60;5.68;;;;;;;13.11;100.00;101829.97;5138763;27;20057;-80
2022/06/03 01:33:15;;;;;;;14.75;6.55;;;;;;;13.10;100.00;101821.25;5150083;27;20055;-81
2022/06/03 01:35:51;;;;;;;12.20;6.18;;;;;;;13.10;100.00;101836.13;5156556;27;20043;-80
2022/06/03 01:38:36;;;;;;;13.45;5.82;;;;;;;12.87;100.00;101840.34;5146939;27;20052;-81
2022/06/03 01:41:29;;;;;;;15.95;6.72;;;;;;;12.76;100.00;101810.84;5141101;27;20058;-80
2022/06/03 01:44:18;;;;;;;10.98;5.28;;;;;;;13.05;100.00;101831.03;5142774;27;20047;-80
2022/06/03 01:47:06;;;;;;;12.82;6.32;;;;;;;12.99;100.00;101835.59;5143962;27;20061;-80
2022/06/03 01:49:52;;;;;;;11.40;5.75;;;;;;;12.69;100.00;101830.34;5143558;27;20069;-80
2022/06/03 01:52:46;;;;;;;11.93;6.03;;;;;;;12.65;100.00;101826.09;5153130;27;20469;-80
2022/06/03 01:55:34;;;;;;;12.43;7.32;;;;;;;12.67;100.00;101816.41;5146171;27;20066;-80
2022/06/03 01:58:31;;;;;;;12.07;5.32;;;;;;;12.82;100.00;101830.84;5152576;27;20492;-80
2022/06/03 02:01:25;;;;;;;10.23;5.13;;;;;;;13.05;100.00;101822.25;5154538;27;20386;-80
2022/06/03 02:04:19;;;;;;;10.48;5.40;;;;;;;12.69;100.00;101831.19;5150842;27;20127;-80
2022/06/03 02:07:26;;;;;;;10.07;4.65;;;;;;;12.89;100.00;101835.00;5152478;27;20468;-80
2022/06/03 02:10:05;;;;;;;11.38;4.95;;;;;;;13.10;100.00;101834.38;5150222;27;20054;-80
2022/06/03 02:13:08;;;;;;;12.60;5.93;;;;;;;12.79;100.00;101833.59;5154484;27;20054;-80
2022/06/03 02:16:03;;;;;;;10.52;5.40;;;;;;;13.03;100.00;101834.59;5140310;27;20043;-80
2022/06/03 02:18:48;;;;;;;14.88;4.60;;;;;;;12.98;100.00;101833.88;5144397;27;20054;-80
2022/06/03 02:21:44;;;;;;;12.98;5.22;;;;;;;12.88;100.00;101836.78;5153299;27;20053;-80
2022/06/03 02:24:22;;;;;;;11.55;5.57;;;;;;;12.71;100.00;101820.66;5153833;27;20069;-80
2022/06/03 02:27:26;;;;;;;11.45;5.78;;;;;;;12.94;100.00;101830.47;5154132;27;20050;-80
2022/06/03 02:30:26;;;;;;;14.23;6.53;;;;;;;12.74;100.00;101833.69;5155448;27;20476;-80
2022/06/03 02:33:28;;;;;;;15.40;7.43;;;;;;;12.42;100.00;101834.63;5155047;27;20626;-80
2022/06/03 02:36:22;;;;;;;12.13;6.35;;;;;;;12.46;100.00;101841.50;5154849;27;20045;-80
2022/06/03 02:39:24;;;;;;;10.70;4.55;;;;;;;12.63;100.00;101844.53;5153169;27;20133;-80
2022/06/03 02:42:23;;;;;;;9.95;4.90;;;;;;;12.68;100.00;101826.88;5150602;27;20569;-80
2022/06/03 02:45:05;;;;;;;11.35;5.30;;;;;;;12.43;100.00;101836.34;5153662;27;20065;-80
2022/06/03 02:48:06;;;;;;;11.40;4.85;;;;;;;12.38;100.00;101841.72;5143071;27;20051;-80
2022/06/03 02:51:02;;;;;;;12.93;6.45;;;;;;;12.11;100.00;101840.69;5153422;27;20055;-80
2022/06/03 02:54:11;;;;;;;14.23;6.15;;;;;;;12.49;100.00;101834.41;5146206;27;20050;-80
2022/06/03 02:56:54;;;;;;;11.85;6.15;;;;;;;12.21;100.00;101813.28;5136440;27;20081;-80
2022/06/03 02:59:52;;;;;;;10.30;4.65;;;;;;;12.47;100.00;101843.25;5154616;27;20046;-80
2022/06/03 03:02:28;;;;;;;12.68;5.30;;;;;;;12.71;100.00;101844.28;5148957;27;20482;-80
2022/06/03 03:05:21;;;;;;;9.68;4.82;;;;;;;12.71;100.00;101847.81;5146368;27;20050;-80
2022/06/03 03:08:16;;;;;;;11.47;5.80;;;;;;;12.56;100.00;101855.25;5153498;27;20353;-80
2022/06/03 03:11:16;;;;;;;9.27;4.38;;;;;;;12.71;100.00;101850.44;5147867;27;20054;-80
2022/06/03 03:14:12;;;;;;;12.45;5.95;;;;;;;12.80;100.00;101854.56;5150626;27;20051;-80
2022/06/03 03:17:09;;;;;;;10.23;5.15;;;;;;;13.03;100.00;101858.25;5123004;27;20052;-80
2022/06/03 03:19:53;;;;;;;16.50;7.00;;;;;;;12.19;100.00;101843.97;5150842;27;20051;-80
2022/06/03 03:22:32;;;;;;;11.10;5.38;;;;;;;12.75;100.00;101863.47;5151680;27;20050;-80
2022/06/03 03:25:01;;;;;;;9.70;4.82;;;;;;;12.87;100.00;101863.09;5152816;27;20058;-80
2022/06/03 03:27:59;;;;;;;11.88;6.25;;;;;;;12.89;100.00;101867.44;5152909;27;20574;-80
2022/06/03 03:30:35;;;;;;;10.80;4.80;;;;;;;12.62;100.00;101824.41;5152519;27;20164;-80
2022/06/03 03:33:11;;;;;;;12.05;5.70;;;;;;;12.81;100.00;101871.19;5153101;27;20060;-80
2022/06/03 03:36:03;;;;;;;9.85;4.60;;;;;;;12.86;100.00;101861.41;5152490;27;20043;-80
2022/06/03 03:38:45;;;;;;;10.20;4.63;;;;;;;13.06;100.00;101872.16;5140971;27;20049;-80
2022/06/03 03:41:34;;;;;;;10.32;5.40;;;;;;;12.98;100.00;101873.31;5138898;27;20480;-79
2022/06/03 03:44:42;;;;;;;11.98;5.80;;;;;;;12.89;100.00;101877.06;5139531;27;20043;-80
2022/06/03 03:47:27;;;;;;;13.85;6.22;;;;;;;12.83;100.00;101878.09;5141885;27;20086;-79
2022/06/03 03:50:09;;;;;;;10.48;5.20;;;;;;;12.81;100.00;101882.53;5152488;27;20047;-80
2022/06/03 03:52:57;;;;;;;12.15;5.43;;;;;;;12.82;100.00;101875.50;5152122;27;20046;-80
2022/06/03 03:56:01;;;;;;;10.10;5.32;;;;;;;12.54;100.00;101878.94;5143604;27;20043;-80
2022/06/03 03:59:10;;;;;;;14.30;4.80;;;;;;;12.43;100.00;101850.34;5133556;27;20043;-80
2022/06/03 04:01:57;;;;;;;12.98;3.90;;;;;;;12.53;100.00;101877.22;5145294;27;20058;-81
2022/06/03 04:04:53;;;;;;;10.60;5.00;;;;;;;12.56;100.00;101879.75;5139849;27;20050;-80
2022/06/03 04:07:57;;;;;;;11.55;5.70;;;;;;;12.18;100.00;101879.00;5140358;27;20047;-80
2022/06/03 04:10:55;;;;;;;13.52;6.20;;;;;;;12.77;100.00;101882.69;5155777;27;20046;-80
2022/06/03 04:13:28;;;;;;;11.68;5.55;;;;;;;12.47;100.00;101885.28;5155759;27;20055;-80
2022/06/03 04:16:25;;;;;;;11.18;5.25;;;;;;;12.56;100.00;101881.53;5153450;27;20066;-80
2022/06/03 04:19:37;;;;;;;15.98;6.40;;;;;;;12.47;100.00;101886.13;5156862;27;20468;-80
2022/06/03 04:22:32;;;;;;;13.82;6.18;;;;;;;12.29;100.00;101887.47;5143905;27;20062;-80
2022/06/03 04:25:19;;;;;;;12.70;5.82;;;;;;;12.23;100.00;101887.63;5149256;27;20757;-81
2022/06/03 04:27:54;;;;;;;10.50;4.93;;;;;;;12.26;100.00;101895.44;5130037;27;20392;-80
2022/06/03 04:30:43;;;;;;;9.75;5.45;;;;;;;12.04;100.00;101895.13;5156615;27;20051;-80
2022/06/03 04:33:28;;;;;;;12.63;5.25;;;;;;;12.19;100.00;101893.00;5146199;27;20073;-80
2022/06/03 04:36:16;;;;;;;8.45;3.72;;;;;;;12.47;100.00;101883.50;5151653;27;20047;-80
2022/06/03 04:39:20;;;;;;;10.65;4.72;;;;;;;12.39;100.00;101898.59;5156484;27;20365;-80
2022/06/03 04:42:24;;;;;;;11.40;3.92;;;;;;;12.21;100.00;101905.19;5137071;27;20051;-80
2022/06/03 04:45:32;;;;;;;7.85;3.30;;;;;;;12.23;100.00;101886.78;5142787;27;20035;-80
2022/06/03 04:48:14;;;;;;;10.50;4.22;;;;;;;12.09;100.00;101914.25;5154039;27;20057;-80
2022/06/03 04:51:15;;;;;;;8.60;4.15;;;;;;;12.31;100.00;101909.31;5156499;27;20061;-80
2022/06/03 04:53:47;;;;;;;9.95;4.22;;;;;;;12.21;100.00;101909.59;5139672;27;20062;-80
2022/06/03 04:56:32;;;;;;;12.27;3.45;;;;;;;12.48;100.00;101908.00;5146276;27;20408;-81
2022/06/03 04:59:31;;;;;;;9.35;3.50;;;;;;;12.40;100.00;101916.09;5156850;27;20050;-80
2022/06/03 05:02:20;;;;;;;9.90;4.00;;;;;;;12.35;100.00;101912.72;5153808;27;20050;-80
2022/06/03 05:05:18;;;;;;;10.60;3.38;;;;;;;12.37;100.00;101915.31;5135034;27;20105;-80
2022/06/03 05:08:10;;;;;;;7.70;3.45;;;;;;;12.41;100.00;101909.06;5137828;27;20039;-80
2022/06/03 05:10:46;;;;;;;10.95;4.20;;;;;;;12.24;100.00;101909.53;5152693;27;20483;-80
2022/06/03 05:13:50;;;;;;;8.35;3.03;;;;;;;12.25;100.00;101901.59;5144056;27;20047;-80
2022/06/03 05:16:17;;;;;;;8.25;2.75;;;;;;;12.25;100.00;101912.09;5139329;27;20043;-80
2022/06/03 05:18:55;;;;;;;6.63;2.83;;;;;;;12.52;100.00;101915.75;5149174;27;20050;-80
2022/06/03 05:21:44;;;;;;;7.75;2.90;;;;;;;12.45;100.00;101910.72;5142346;27;20046;-80
2022/06/03 05:24:29;;;;;;;9.23;3.85;;;;;;;12.24;100.00;101926.13;5140468;27;20431;-80
2022/06/03 05:27:20;;;;;;;12.77;3.63;;;;;;;12.11;100.00;101917.72;5155275;27;20047;-80
2022/06/03 05:30:22;;;;;;;9.55;3.13;;;;;;;12.40;100.00;101923.97;5137954;27;20047;-80
2022/06/03 05:33:22;;;;;;;8.48;3.10;;;;;;;12.30;100.00;101904.94;5136876;27;20048;-80
2022/06/03 05:36:06;;;;;;;7.95;3.20;;;;;;;12.06;100.00;101923.97;5155184;27;20051;-80
2022/06/03 05:38:55;;;;;;;7.75;3.20;;;;;;;11.87;100.00;101918.28;5144881;27;20075;-80
2022/06/03 05:44:41;;;;;;;;;;;;;;;12.51;100.00;101919.28;5156241;27;20047;-80
2022/06/03 05:47:18;;;;;;;10.65;3.10;;;;;;;12.27;100.00;101912.03;5155547;27;19919;-80
2022/06/03 05:50:00;;;;;;;8.93;3.45;;;;;;;12.36;100.00;101922.34;5155565;27;20052;-80
2022/06/03 05:52:26;;;;;;;9.05;3.55;;;;;;;12.21;100.00;101927.97;5143022;27;20473;-80
2022/06/03 05:55:24;;;;;;;7.78;3.10;;;;;;;12.49;100.00;101922.88;5151272;27;20047;-79
2022/06/03 05:58:17;;;;;;;6.72;2.60;;;;;;;12.23;100.00;101897.28;5156087;27;20589;-80
2022/06/03 06:01:05;;;;;;;8.40;2.92;;;;;;;12.48;100.00;101922.00;5152016;27;20046;-80
2022/06/03 06:03:56;;;;;;;9.18;3.17;;;;;;;12.37;100.00;101921.41;5149164;27;20078;-80
2022/06/03 06:06:31;;;;;;;5.88;1.88;;;;;;;12.59;100.00;101903.31;5144727;27;20046;-80
2022/06/03 06:09:29;;;;;;;9.15;3.17;;;;;;;12.40;100.00;101916.09;5154706;27;20035;-80
2022/06/03 06:12:12;;;;;;;6.43;2.58;;;;;;;12.49;100.00;101910.56;5139428;27;20047;-80
2022/06/03 06:15:11;;;;;;;11.45;2.97;;;;;;;12.59;100.00;101910.31;5142016;27;20452;-80
2022/06/03 06:18:04;;;;;;;10.80;3.22;;;;;;;12.27;100.00;101906.78;5155843;27;20480;-80
2022/06/03 06:20:34;;;;;;;8.98;3.15;;;;;;;12.22;100.00;101914.81;5154938;27;20588;-80
2022/06/03 06:23:17;;;;;;;8.77;3.25;;;;;;;11.80;100.00;101930.66;5153835;27;20058;-80
2022/06/03 06:26:00;;;;;;;8.05;3.00;;;;;;;12.19;100.00;101911.41;5139323;27;20491;-80
2022/06/03 06:28:49;;;;;;;8.02;2.65;;;;;;;12.64;100.00;101918.94;5154941;27;20045;-80
2022/06/03 06:31:53;;;;;;;9.68;2.45;;;;;;;12.84;100.00;101921.91;5145129;27;20452;-80
2022/06/03 06:34:26;;;;;;;;;;;;;;;13.04;100.00;101923.94;5155642;27;20656;-80
2022/06/03 06:37:08;;;;;;;8.73;3.13;;;;;;;12.75;100.00;101921.28;5153540;27;20010;-81
2022/06/03 06:39:34;;;;;;;7.82;2.53;;;;;;;12.67;100.00;101922.34;5153966;27;20486;-80
2022/06/03 06:42:15;;;;;;;6.82;2.50;;;;;;;12.63;100.00;101904.09;5153509;27;20378;-80
2022/06/03 06:44:54;;;;;;;8.10;3.30;;;;;;;12.45;100.00;101929.09;5138966;27;20045;-80
2022/06/03 06:47:59;;;;;;;7.60;3.17;;;;;;;12.49;100.00;101930.75;5146049;27;20050;-80
2022/06/03 06:50:40;;;;;;;9.07;2.95;;;;;;;12.79;100.00;101934.31;5091988;27;20051;-80
2022/06/03 06:53:12;;;;;;;6.75;2.65;;;;;;;12.77;100.00;101941.38;5137871;27;20043;-80
2022/06/03 06:56:02;;;;;;;9.93;3.50;;;;;;;12.61;100.00;101940.06;5149968;27;20129;-80
2022/06/03 06:58:32;;;;;;;6.85;2.80;;;;;;;12.86;100.00;101945.50;5149396;27;20043;-80
2022/06/03 07:01:03;;;;;;;10.82;3.67;;;;;;;12.84;100.00;101931.56;5155321;27;20056;-80
2022/06/03 07:03:58;;;;;;;9.05;2.97;;;;;;;12.79;100.00;101942.19;5138844;27;20484;-80
2022/06/03 07:06:33;;;;;;;6.35;2.70;;;;;;;12.81;100.00;101950.88;5153591;27;20047;-80
2022/06/03 07:09:29;;;;;;;6.63;2.45;;;;;;;12.94;100.00;101954.03;5153414;27;20054;-80
2022/06/03 07:12:12;;;;;;;8.88;3.00;;;;;;;12.88;100.00;101939.28;5153297;27;20753;-80
2022/06/03 07:15:02;;;;;;;7.63;2.20;;;;;;;13.09;100.00;101948.34;5141412;27;20460;-80
2022/06/03 07:20:34;;;;;;;13.25;2.70;;;;;;;12.45;100.00;101952.75;5148995;27;20373;-80
2022/06/03 07:23:26;;;;;;;10.25;2.83;;;;;;;12.95;100.00;101955.75;5151497;27;20051;-80
2022/06/03 07:26:09;;;;;;;8.10;2.38;;;;;;;12.90;100.00;101948.00;5153475;27;20054;-81
2022/06/03 07:28:42;;;;;;;6.53;2.13;;;;;;;13.17;100.00;101957.78;5152638;27;20045;-80
2022/06/03 07:31:18;;;;;;;8.95;2.80;;;;;;;12.77;100.00;101951.03;5139222;27;20073;-80
2022/06/03 07:34:01;;;;;;;9.00;2.17;;;;;;;13.17;100.00;101950.72;5153837;27;20087;-80
2022/06/03 07:36:54;;;;;;;5.43;1.70;;;;;;;13.27;100.00;101954.81;5138505;27;20057;-81
2022/06/03 07:39:55;;;;;;;11.87;2.50;;;;;;;13.30;100.00;101957.38;5145618;27;20058;-80
2022/06/03 07:42:43;;;;;;;7.13;2.20;;;;;;;13.33;100.00;101961.69;5153617;27;20301;-80
2022/06/03 07:45:28;;;;;;;7.90;2.67;;;;;;;13.60;100.00;101959.19;5140515;27;20437;-81
2022/06/03 07:48:04;;;;;;;6.90;2.30;;;;;;;13.80;100.00;101955.91;5150717;27;20045;-80
2022/06/03 07:50:36;;;;;;;5.32;1.73;;;;;;;14.68;100.00;101950.34;5152532;27;20047;-80
2022/06/03 07:53:14;;;;;;;9.48;2.65;;;;;;;14.10;100.00;101929.50;5152478;27;20134;-81
2022/06/03 07:55:41;;;;;;;10.45;2.58;;;;;;;14.51;100.00;101954.44;5149437;27;20460;-81
2022/06/03 07:58:15;;;;;;;5.55;2.10;;;;;;;15.36;100.00;101968.06;5147350;27;20047;-80
2022/06/03 08:00:45;;;;;;;7.47;2.30;;;;;;;15.44;100.00;101949.31;5152997;27;20049;-80
2022/06/03 08:03:24;;;;;;;8.57;2.50;;;;;;;15.14;100.00;101972.44;5144224;27;20043;-80
2022/06/03 08:06:00;;;;;;;8.13;2.33;;;;;;;15.06;100.00;101967.44;5153785;27;20045;-80
2022/06/03 08:11:15;;;;;;;13.75;2.63;;;;;;;14.99;100.00;101965.94;5153514;27;20047;-81
2022/06/03 08:13:42;;;;;;;7.85;2.25;;;;;;;14.97;100.00;101968.63;5153295;27;20476;-80
2022/06/03 08:16:29;;;;;;;6.50;1.90;;;;;;;15.35;100.00;101976.03;5152393;27;20081;-81
2022/06/03 08:19:27;;;;;;;7.18;1.85;;;;;;;16.20;99.98;101956.88;5141741;27;20104;-80
2022/06/03 08:21:57;;;;;;;8.75;2.15;;;;;;;16.35;95.91;101958.88;5131297;27;20066;-81
2022/06/03 08:24:48;;;;;;;6.82;1.92;;;;;;;17.46;90.52;101968.06;5150690;27;20087;-80
2022/06/03 08:27:23;;;;;;;8.20;1.73;;;;;;;17.35;84.41;101959.78;5153605;27;20050;-81
2022/06/03 08:30:07;;;;;;;8.73;2.17;;;;;;;16.51;87.14;101953.78;5151952;27;20039;-81
2022/06/03 08:32:40;;;;;;;7.80;2.35;;;;;;;17.16;83.56;101962.41;5145118;27;20047;-81
2022/06/03 08:35:13;;;;;;;7.05;1.83;;;;;;;16.72;90.01;101973.16;5153331;27;20141;-81
2022/06/03 08:38:04;;;;;;;6.72;2.17;;;;;;;17.41;83.29;101971.84;5138365;27;20613;-81
2022/06/03 08:40:38;;;;;;;6.32;1.70;;;;;;;18.31;80.01;101968.41;5152182;27;20049;-81
2022/06/03 08:43:28;;;;;;;8.30;2.10;;;;;;;18.43;75.80;101972.22;5164381;27;20499;-81
2022/06/03 08:46:16;;;;;;;6.43;1.83;;;;;;;17.84;79.43;101975.94;5131152;27;20088;-81
2022/06/03 08:48:45;;;;;;;9.07;2.28;;;;;;;17.61;80.64;101986.78;5141122;27;20464;-81
2022/06/03 08:51:37;;;;;;;7.15;2.00;;;;;;;16.93;79.15;101981.09;5144021;27;20047;-81
2022/06/03 08:54:28;;;;;;;6.28;1.95;;;;;;;16.75;82.08;101982.72;5151073;27;20478;-81
2022/06/03 08:57:02;;;;;;;8.38;2.47;;;;;;;16.74;85.76;101973.94;5157509;27;20535;-80
2022/06/03 08:59:41;;;;;;;5.93;2.20;;;;;;;16.11;89.38;101995.09;5155168;27;20507;-80
2022/06/03 09:02:14;;;;;;;5.25;1.90;;;;;;;17.39;85.55;101979.88;5150001;27;20047;-80
2022/06/03 09:04:51;;;;;;;7.50;1.88;;;;;;;17.97;81.07;101978.91;5144645;27;20043;-80
2022/06/03 09:07:39;;;;;;;7.18;1.85;;;;;;;18.26;79.01;101973.09;5153100;27;20051;-81
2022/06/03 09:10:18;;;;;;;5.78;1.95;;;;;;;17.88;78.32;101986.44;5155832;27;20050;-80
2022/06/03 09:13:00;;;;;;;9.80;2.38;;;;;;;18.40;76.00;101991.81;5142388;27;20050;-81
2022/06/03 09:15:35;;;;;;;8.02;2.03;;;;;;;18.67;75.32;101986.03;5152596;27;20062;-81
2022/06/03 09:18:22;;;;;;;4.85;1.63;;;;;;;17.56;78.93;101988.81;5156809;27;20063;-81
2022/06/03 09:21:06;;;;;;;7.70;2.25;;;;;;;18.48;75.53;101984.31;5156684;27;20088;-81
2022/06/03 09:23:38;;;;;;;8.65;2.03;;;;;;;18.17;76.11;101995.63;5155909;27;20061;-80
2022/06/03 09:26:21;;;;;;;11.45;2.45;;;;;;;18.02;76.23;102003.41;5150769;27;20125;-81
2022/06/03 09:28:51;;;;;;;10.57;2.85;;;;;;;17.27;82.40;101998.97;5148033;27;20506;-80
2022/06/03 09:31:19;;;;;;;10.32;2.80;;;;;;;17.62;83.04;102015.00;5150461;27;20045;-81
2022/06/03 09:33:53;;;;;;;10.75;2.97;;;;;;;17.71;80.10;102013.72;5147351;27;20129;-81
2022/06/03 09:36:23;;;;;;;8.23;2.35;;;;;;;17.75;80.41;102004.69;5156268;27;20076;-82
2022/06/03 09:38:53;;;;;;;12.75;2.90;;;;;;;17.48;81.54;102007.72;5142555;27;20046;-81
2022/06/03 09:41:25;;;;;;;10.32;2.38;;;;;;;17.33;82.03;102001.31;5154081;27;20042;-81
2022/06/03 09:43:54;;;;;;;10.93;2.97;;;;;;;17.16;86.01;101999.44;5152480;27;20047;-81
2022/06/03 09:46:26;;;;;;;12.18;2.92;;;;;;;17.81;82.68;102020.28;5142211;27;20043;-81
2022/06/03 09:48:53;;;;;;;8.63;2.80;;;;;;;17.48;79.63;102033.34;5146349;27;20537;-81
2022/06/03 09:51:55;;;;;;;9.55;2.60;;;;;;;17.62;82.20;102020.31;5140254;27;20047;-81
2022/06/03 09:54:13;;;;;;;13.00;2.80;;;;;;;17.62;81.17;102025.59;5149363;27;20046;-80
2022/06/03 09:56:41;;;;;;;12.60;3.55;;;;;;;17.19;82.53;102012.56;5154404;27;20055;-80
2022/06/03 09:59:10;;;;;;;15.23;3.70;;;;;;;17.13;82.51;102019.91;5147233;27;20039;-80
2022/06/03 10:01:36;;;;;;;10.88;3.33;;;;;;;17.50;80.79;102016.44;5141487;27;20468;-80
2022/06/03 10:04:07;;;;;;;16.30;3.40;;;;;;;17.32;82.35;102023.44;5140200;27;20647;-81
2022/06/03 10:06:43;;;;;;;12.85;2.80;;;;;;;17.62;82.22;102009.72;5155739;27;20069;-80
2022/06/03 10:15:37;;;;;;;11.35;3.78;;;;;;;18.12;81.11;102034.75;5154707;27;20057;-80
2022/06/03 10:17:34;;;;;;;14.52;3.50;;;;;;;18.41;77.03;102049.19;5154767;27;20126;-81
2022/06/03 10:20:08;;;;;;;10.00;2.55;;;;;;;18.59;75.03;102031.50;5155512;27;20749;-80
2022/06/03 10:22:35;;;;;;;17.80;3.88;;;;;;;18.66;76.10;102042.66;5155348;27;20095;-80
2022/06/03 10:25:02;;;;;;;12.32;2.95;;;;;;;18.32;78.14;102047.84;5153929;27;20046;-80
2022/06/03 10:27:29;;;;;;;13.60;3.28;;;;;;;18.32;78.24;102045.22;5155845;27;20403;-81
2022/06/03 10:29:59;;;;;;;12.02;3.10;;;;;;;19.15;74.48;102043.66;5153011;27;20049;-80
2022/06/03 10:32:26;;;;;;;13.20;2.30;;;;;;;18.89;73.59;102053.00;5153331;27;20050;-80
2022/06/03 10:35:13;;;;;;;14.43;3.45;;;;;;;18.30;74.25;102063.00;5153425;27;20095;-79
2022/06/03 10:37:52;;;;;;;8.55;2.45;;;;;;;18.60;75.94;102057.94;5154772;27;20051;-80
2022/06/03 10:40:21;;;;;;;12.60;3.22;;;;;;;18.21;77.60;102050.19;5154460;27;20054;-81
2022/06/03 10:42:54;;;;;;;18.52;3.90;;;;;;;17.36;81.84;102061.22;5153861;27;20058;-80
2022/06/03 10:45:34;;;;;;;16.08;3.40;;;;;;;17.73;83.37;102062.19;5153898;27;20043;-81
2022/06/03 10:48:18;;;;;;;13.50;3.13;;;;;;;17.88;80.70;102058.81;5154185;27;20039;-80
2022/06/03 10:50:45;;;;;;;9.70;3.00;;;;;;;17.78;79.34;102044.28;5153406;27;20046;-80
2022/06/03 11:01:53;;;;;;;11.63;3.08;;;;;;;18.39;78.04;102057.22;5134742;27;20064;-80
2022/06/03 11:04:25;;;;;;;12.05;3.03;;;;;;;18.12;79.31;102078.00;5153315;27;20045;-80
2022/06/03 11:06:51;;;;;;;14.73;4.00;;;;;;;17.58;80.98;102051.38;5154488;27;20050;-80
2022/06/03 11:09:19;;;;;;;11.07;2.92;;;;;;;17.07;81.12;102045.72;5170063;27;20662;-81
2022/06/03 11:11:52;;;;;;;11.35;2.97;;;;;;;17.30;82.48;102046.47;5154524;27;20370;-80
2022/06/03 11:14:42;;;;;;;15.63;3.40;;;;;;;17.47;80.25;102085.41;5153416;27;20046;-80
2022/06/03 11:17:24;;;;;;;12.35;3.33;;;;;;;18.11;80.02;102080.72;5139705;27;20055;-80
2022/06/03 11:19:56;;;;;;;12.55;3.63;;;;;;;17.44;81.22;102078.47;5153254;27;20478;-80
2022/06/03 11:22:39;;;;;;;12.15;3.72;;;;;;;17.24;80.26;102074.06;5154206;27;20046;-80
2022/06/03 11:25:18;;;;;;;12.38;3.10;;;;;;;17.40;80.77;102076.88;5154152;27;20053;-80
2022/06/03 11:27:52;;;;;;;11.75;3.70;;;;;;;17.75;80.77;102071.75;5154911;27;20043;-80
2022/06/03 11:30:48;;;;;;;12.77;3.58;;;;;;;17.93;81.31;102079.81;5148837;27;20125;-80
2022/06/03 11:33:25;;;;;;;12.02;3.38;;;;;;;17.80;77.64;102083.00;5139394;27;20099;-80
2022/06/03 11:35:59;;;;;;;13.00;3.60;;;;;;;17.46;80.19;102073.13;5153705;27;20655;-81
2022/06/03 11:39:06;;;;;;;13.40;3.20;;;;;;;17.88;78.63;102085.31;5152479;27;20055;-80
2022/06/03 11:41:46;;;;;;;10.88;2.78;;;;;;;18.08;79.33;102084.38;5137852;27;20046;-81
2022/06/03 11:44:25;;;;;;;14.43;3.40;;;;;;;17.45;81.47;102076.69;5152481;27;20065;-81
2022/06/03 11:47:06;;;;;;;15.63;4.32;;;;;;;17.50;79.16;102058.81;5139798;27;20095;-81
2022/06/03 11:49:33;;;;;;;13.18;3.60;;;;;;;17.70;79.56;102073.75;5152748;27;20042;-80
2022/06/03 11:52:06;;;;;;;10.90;2.83;;;;;;;18.25;78.76;102069.47;5154570;27;20099;-80
2022/06/03 11:54:33;;;;;;;12.43;3.53;;;;;;;17.52;78.28;102051.63;5152557;27;20471;-81
2022/06/03 11:57:02;;;;;;;13.63;3.42;;;;;;;17.26;80.69;102071.34;5154083;27;20049;-81
2022/06/03 11:59:44;;;;;;;12.45;3.53;;;;;;;16.99;82.74;102107.81;5144200;27;20136;-82
2022/06/03 12:02:34;;;;;;;9.15;3.03;;;;;;;17.94;81.36;102106.25;5150745;27;20113;-81
2022/06/03 12:05:06;;;;;;;10.30;3.38;;;;;;;18.47;78.94;102099.28;5152999;27;20416;-81
2022/06/03 12:07:33;;;;;;;10.95;3.25;;;;;;;18.05;81.06;102113.69;5151965;27;20085;-81
2022/06/03 12:10:26;;;;;;;12.85;3.35;;;;;;;18.50;80.45;102112.41;5140708;27;20035;-81
2022/06/03 12:13:17;;;;;;;14.10;3.55;;;;;;;17.73;86.63;102109.84;5140299;27;20380;-81
2022/06/03 12:15:55;;;;;;;14.80;3.42;;;;;;;17.43;88.86;102110.31;5152545;27;20508;-81
2022/06/03 12:18:39;;;;;;;16.17;4.05;;;;;;;17.43;89.05;102126.19;5142777;27;20047;-81
2022/06/03 12:21:07;;;;;;;12.32;3.05;;;;;;;17.55;88.76;102104.47;5137416;27;20449;-80
2022/06/03 12:23:37;;;;;;;11.25;3.25;;;;;;;17.71;90.28;102112.56;5153114;27;20046;-81
2022/06/03 12:26:10;;;;;;;14.75;3.50;;;;;;;17.97;88.04;102116.69;5151927;27;20053;-80
2022/06/03 12:28:36;;;;;;;10.57;3.03;;;;;;;17.93;87.47;102114.25;5156641;27;20054;-81
2022/06/03 12:31:05;;;;;;;12.75;3.03;;;;;;;17.81;82.36;102108.56;5156000;27;20042;-80
2022/06/03 12:34:03;;;;;;;9.85;3.20;;;;;;;17.98;83.15;102118.41;5147632;27;20125;-80
2022/06/03 12:36:51;;;;;;;11.20;3.33;;;;;;;18.10;82.17;102119.63;5142525;27;20107;-81
2022/06/03 12:39:18;;;;;;;11.52;3.20;;;;;;;17.84;81.79;102116.38;5152333;27;20502;-81
2022/06/03 12:41:45;;;;;;;13.15;3.15;;;;;;;17.00;84.86;102106.91;5143563;27;20046;-81
2022/06/03 12:44:44;;;;;;;13.30;3.33;;;;;;;17.54;82.65;102105.38;5155939;27;20046;-81
2022/06/03 12:47:36;;;;;;;9.73;2.67;;;;;;;17.46;80.82;102108.38;5135493;27;20047;-81
2022/06/03 12:50:23;;;;;;;12.43;3.35;;;;;;;17.82;82.60;102112.94;5152794;27;20070;-81
2022/06/03 12:52:59;;;;;;;9.60;2.97;;;;;;;17.65;81.12;102095.19;5150202;27;20408;-81